Time;durP1;ratioP1;P1;durP2;ratioP2;P2;SDS_P1;SDS_P2;PMS_P1;PMS_P2;Temp;Humidity;BMP_temperature;BMP_pressure;BME280_temperature;BME280_humidity;BME280_pressure;Samples;Min_cycle;Max_cycle;Signal;HPM_P1;HPM_P2
2022/09/28 00:01:11;;;;;;;16.57;14.25;;;;;;;14.78;100.00;98330.23;1710929;82;21520;-78
2022/09/28 00:03:38;;;;;;;20.10;15.03;;;;;;;14.71;100.00;98328.53;1729220;82;21478;-78
2022/09/28 00:06:06;;;;;;;18.35;14.75;;;;;;;14.68;100.00;98328.58;1707559;82;20983;-82
2022/09/28 00:08:37;;;;;;;19.82;14.90;;;;;;;14.71;100.00;98326.63;1715391;82;21046;-82
2022/09/28 00:11:06;;;;;;;22.13;16.45;;;;;;;14.72;100.00;98319.31;1709595;83;21064;-80
2022/09/28 00:13:35;;;;;;;24.00;14.65;;;;;;;14.73;100.00;98318.17;1726741;82;21079;-87
2022/09/28 00:16:05;;;;;;;24.60;17.05;;;;;;;14.70;100.00;98314.20;1749669;82;21241;-75
2022/09/28 00:18:32;;;;;;;16.80;14.35;;;;;;;14.64;100.00;98313.27;1740510;81;21218;-77
2022/09/28 00:21:07;;;;;;;18.35;15.80;;;;;;;14.64;100.00;98311.38;1758251;81;21051;-78
2022/09/28 00:24:11;;;;;;;17.37;14.55;;;;;;;14.63;100.00;98311.12;1742049;82;22165;-78
2022/09/28 00:26:05;;;;;;;15.85;14.15;;;;;;;14.62;100.00;98304.13;1748225;81;21069;-83
2022/09/28 00:28:33;;;;;;;17.60;14.60;;;;;;;14.63;100.00;98302.20;1758155;80;21066;-79
2022/09/28 00:31:00;;;;;;;19.80;14.10;;;;;;;14.64;100.00;98311.38;1742135;81;21570;-80
2022/09/28 00:33:26;;;;;;;26.12;17.27;;;;;;;14.64;100.00;98319.48;1758669;81;20955;-80
2022/09/28 00:35:57;;;;;;;21.93;14.93;;;;;;;14.64;100.00;98317.33;1751258;82;21053;-78
2022/09/28 00:38:28;;;;;;;18.00;14.53;;;;;;;14.68;100.00;98325.88;1730694;82;21050;-86
2022/09/28 00:40:55;;;;;;;20.23;15.08;;;;;;;14.70;100.00;98322.31;1722564;82;21334;-83
2022/09/28 00:43:22;;;;;;;27.50;16.12;;;;;;;14.74;100.00;98326.00;1690380;84;21048;-79
2022/09/28 00:45:57;;;;;;;17.25;15.13;;;;;;;14.74;100.00;98324.64;1702080;82;21098;-83
2022/09/28 00:48:24;;;;;;;17.65;14.33;;;;;;;14.72;100.00;98334.97;1744939;81;21023;-75
2022/09/28 00:50:52;;;;;;;19.67;15.08;;;;;;;14.68;100.00;98336.70;1744262;81;21134;-77
2022/09/28 00:53:25;;;;;;;18.10;15.23;;;;;;;14.66;100.00;98333.52;1726063;82;21092;-76
2022/09/28 00:55:54;;;;;;;18.73;14.90;;;;;;;14.67;100.00;98322.95;1740656;82;21543;-78
2022/09/28 00:58:27;;;;;;;18.10;14.80;;;;;;;14.67;100.00;98316.73;1757936;80;21038;-82
2022/09/28 01:00:55;;;;;;;18.98;15.55;;;;;;;14.69;100.00;98320.71;1765335;80;21033;-75
2022/09/28 01:03:21;;;;;;;16.48;13.70;;;;;;;14.72;100.00;98311.96;1779238;80;21554;-80
2022/09/28 01:05:50;;;;;;;19.67;14.65;;;;;;;14.77;100.00;98308.36;1763598;80;22243;-78
2022/09/28 01:08:19;;;;;;;13.10;11.78;;;;;;;14.78;100.00;98300.45;1776873;80;21021;-75
2022/09/28 01:10:48;;;;;;;16.73;14.10;;;;;;;14.71;100.00;98291.45;1764085;80;21036;-74
2022/09/28 01:13:16;;;;;;;16.70;13.15;;;;;;;14.56;100.00;98304.01;1748494;80;20942;-74
2022/09/28 01:15:55;;;;;;;13.20;11.18;;;;;;;14.56;100.00;98315.38;1748194;80;20998;-76
2022/09/28 01:18:46;;;;;;;10.98;9.78;;;;;;;14.61;100.00;98306.59;1758073;80;21807;-70
2022/09/28 01:21:22;;;;;;;12.03;10.72;;;;;;;14.64;100.00;98312.72;1757684;80;20947;-72
2022/09/28 01:24:09;;;;;;;14.23;11.63;;;;;;;14.59;100.00;98317.45;1769084;80;21031;-76
2022/09/28 01:26:54;;;;;;;18.35;14.03;;;;;;;14.54;100.00;98310.27;1777500;80;20966;-80
2022/09/28 01:29:41;;;;;;;16.32;13.18;;;;;;;14.50;100.00;98305.79;1778970;80;20958;-79
2022/09/28 01:32:47;;;;;;;17.30;14.80;;;;;;;14.43;100.00;98308.15;1748622;82;21115;-75
2022/09/28 01:35:34;;;;;;;15.85;13.30;;;;;;;14.36;100.00;98317.48;1765284;80;21562;-74
2022/09/28 01:38:05;;;;;;;15.98;12.90;;;;;;;14.33;100.00;98319.98;1713626;82;20975;-74
2022/09/28 01:40:33;;;;;;;18.02;13.40;;;;;;;14.31;100.00;98314.07;1761050;80;21012;-75
2022/09/28 01:43:11;;;;;;;16.73;14.15;;;;;;;14.28;100.00;98306.03;1752015;80;20993;-75
2022/09/28 01:45:45;;;;;;;18.17;14.00;;;;;;;14.27;100.00;98314.44;1774306;80;21970;-74
2022/09/28 01:48:23;;;;;;;19.92;15.63;;;;;;;14.26;100.00;98314.19;1749389;82;20978;-74
2022/09/28 01:50:53;;;;;;;21.25;14.95;;;;;;;14.24;100.00;98317.77;1779058;80;21009;-74
2022/09/28 01:53:24;;;;;;;16.05;14.03;;;;;;;14.22;100.00;98319.42;1778483;80;21081;-75
2022/09/28 01:56:00;;;;;;;15.45;12.93;;;;;;;14.22;100.00;98317.27;1779187;80;21031;-74
2022/09/28 01:58:32;;;;;;;18.17;15.15;;;;;;;14.25;100.00;98315.29;1736689;81;21145;-74
2022/09/28 02:01:03;;;;;;;21.15;15.18;;;;;;;14.23;100.00;98307.51;1743711;80;21003;-74
2022/09/28 02:03:58;;;;;;;18.67;15.90;;;;;;;14.22;100.00;98311.86;1690476;84;21014;-75
2022/09/28 02:06:40;;;;;;;20.62;14.25;;;;;;;14.20;100.00;98305.39;1716685;82;21614;-75
2022/09/28 02:09:13;;;;;;;17.05;15.03;;;;;;;14.22;100.00;98303.20;1687300;83;21559;-75
2022/09/28 02:11:46;;;;;;;16.97;13.80;;;;;;;14.27;100.00;98303.08;1721207;82;21178;-73
2022/09/28 02:14:14;;;;;;;20.12;14.73;;;;;;;14.33;100.00;98307.27;1723047;82;21521;-74
2022/09/28 02:16:43;;;;;;;24.50;15.43;;;;;;;14.37;100.00;98301.51;1731715;82;21079;-73
2022/09/28 02:19:17;;;;;;;17.92;14.83;;;;;;;14.38;100.00;98303.11;1760379;81;21009;-76
2022/09/28 02:22:22;;;;;;;20.02;15.03;;;;;;;14.35;100.00;98307.73;1764185;81;21002;-74
2022/09/28 02:24:59;;;;;;;18.25;14.75;;;;;;;14.32;100.00;98312.42;1771001;80;21092;-74
2022/09/28 02:27:54;;;;;;;17.75;15.83;;;;;;;14.26;100.00;98315.00;1753297;80;21024;-74
2022/09/28 02:30:20;;;;;;;17.52;13.40;;;;;;;14.21;100.00;98307.00;1771319;80;21637;-75
2022/09/28 02:32:49;;;;;;;17.62;14.78;;;;;;;14.15;100.00;98310.16;1768942;81;21559;-74
2022/09/28 02:35:17;;;;;;;20.65;15.58;;;;;;;14.14;100.00;98312.61;1750364;81;21072;-75
2022/09/28 02:37:44;;;;;;;17.87;15.28;;;;;;;14.17;100.00;98310.08;1739334;82;21076;-75
2022/09/28 02:40:23;;;;;;;20.68;15.78;;;;;;;14.19;100.00;98310.58;1720353;83;21453;-74
2022/09/28 02:43:19;;;;;;;19.67;17.37;;;;;;;14.22;100.00;98314.02;1703609;82;21040;-75
2022/09/28 02:46:15;;;;;;;25.35;15.98;;;;;;;14.26;100.00;98309.59;1720452;83;21028;-74
2022/09/28 02:49:11;;;;;;;22.60;17.15;;;;;;;14.31;100.00;98308.66;1739536;82;21078;-75
2022/09/28 02:51:57;;;;;;;;;;;;;;;14.24;100.00;98303.70;1752965;81;21222;-75
2022/09/28 02:55:02;;;;;;;20.55;15.98;;;;;;;14.20;100.00;98305.95;1706977;82;20546;-75
2022/09/28 02:57:47;;;;;;;19.55;16.37;;;;;;;14.18;100.00;98308.17;1654558;85;21066;-74
2022/09/28 03:00:17;;;;;;;20.20;16.52;;;;;;;14.24;100.00;98312.37;1721283;82;21179;-75
2022/09/28 03:03:20;;;;;;;21.77;16.40;;;;;;;14.36;100.00;98316.69;1751646;81;21168;-74
2022/09/28 03:06:09;;;;;;;21.25;16.95;;;;;;;14.45;100.00;98311.33;1753772;81;21134;-76
2022/09/28 03:08:52;;;;;;;20.80;16.90;;;;;;;14.46;100.00;98312.93;1704299;83;21021;-76
2022/09/28 03:11:24;;;;;;;;;;;;;;;14.30;100.00;98312.47;1723010;83;21364;-76
2022/09/28 03:13:52;;;;;;;20.10;16.52;;;;;;;14.29;100.00;98312.25;1721304;82;20197;-75
2022/09/28 03:16:21;;;;;;;18.12;16.23;;;;;;;14.30;100.00;98320.03;1731252;82;21187;-76
2022/09/28 03:18:49;;;;;;;22.93;16.45;;;;;;;14.24;100.00;98318.58;1729957;82;22783;-75
2022/09/28 03:21:16;;;;;;;21.27;17.55;;;;;;;14.16;100.00;98321.19;1771101;80;21000;-76
2022/09/28 03:23:46;;;;;;;21.02;17.05;;;;;;;14.20;100.00;98313.51;1752648;80;20998;-75
2022/09/28 03:26:15;;;;;;;24.27;19.05;;;;;;;14.24;100.00;98305.61;1740845;81;21066;-76
2022/09/28 03:28:42;;;;;;;20.25;17.62;;;;;;;14.27;100.00;98303.08;1766589;81;21542;-77
2022/09/28 03:31:10;;;;;;;21.10;17.27;;;;;;;14.28;100.00;98305.23;1771140;80;21801;-76
2022/09/28 03:33:38;;;;;;;20.90;17.85;;;;;;;14.26;100.00;98310.94;1749831;80;21018;-77
2022/09/28 03:36:07;;;;;;;24.12;16.27;;;;;;;14.24;100.00;98313.72;1740837;82;21563;-73
2022/09/28 03:38:35;;;;;;;21.93;18.80;;;;;;;14.23;100.00;98316.17;1702762;82;21018;-75
2022/09/28 03:41:02;;;;;;;24.52;17.20;;;;;;;14.24;100.00;98311.81;1722149;82;21010;-74
2022/09/28 03:43:31;;;;;;;25.97;18.98;;;;;;;14.30;100.00;98321.94;1758629;81;21818;-75
2022/09/28 03:46:00;;;;;;;26.42;18.23;;;;;;;14.35;100.00;98323.16;1771056;81;20998;-74
2022/09/28 03:48:32;;;;;;;24.30;18.02;;;;;;;14.42;100.00;98317.36;1770954;80;21014;-75
2022/09/28 03:51:01;;;;;;;24.72;20.10;;;;;;;14.48;100.00;98316.94;1750099;81;21022;-74
2022/09/28 03:53:28;;;;;;;22.30;18.95;;;;;;;14.56;100.00;98318.09;1729917;82;21114;-74
2022/09/28 03:55:55;;;;;;;22.40;18.73;;;;;;;14.56;100.00;98321.59;1730398;82;21090;-74
2022/09/28 03:58:23;;;;;;;23.90;18.90;;;;;;;14.57;100.00;98323.20;1730246;82;21055;-75
2022/09/28 04:00:49;;;;;;;23.32;18.40;;;;;;;14.57;100.00;98318.34;1730625;82;21043;-73
2022/09/28 04:03:16;;;;;;;25.80;19.55;;;;;;;14.59;100.00;98320.97;1730210;82;21052;-75
2022/09/28 04:05:50;;;;;;;25.40;18.98;;;;;;;14.61;100.00;98319.31;1730915;82;21549;-74
2022/09/28 04:08:18;;;;;;;23.55;18.98;;;;;;;14.59;100.00;98318.81;1729276;82;22242;-75
2022/09/28 04:10:47;;;;;;;24.45;20.32;;;;;;;14.57;100.00;98313.73;1750351;82;21020;-75
2022/09/28 04:13:15;;;;;;;26.50;19.82;;;;;;;14.58;100.00;98318.59;1749394;82;21045;-75
2022/09/28 04:15:53;;;;;;;23.77;19.32;;;;;;;14.57;100.00;98311.03;1750094;82;21553;-75
2022/09/28 04:18:20;;;;;;;22.37;18.30;;;;;;;14.57;100.00;98316.44;1732427;82;21056;-75
2022/09/28 04:21:05;;;;;;;22.62;19.20;;;;;;;14.54;100.00;98316.23;1719071;83;21205;-76
2022/09/28 04:23:35;;;;;;;18.98;16.45;;;;;;;14.53;100.00;98317.36;1740557;82;21035;-75
2022/09/28 04:26:04;;;;;;;21.23;16.62;;;;;;;14.46;100.00;98316.98;1730254;82;21020;-76
2022/09/28 04:31:20;;;;;;;20.95;18.02;;;;;;;14.23;100.00;98316.97;1750391;82;21505;-76
2022/09/28 04:33:47;;;;;;;23.52;18.77;;;;;;;14.13;100.00;98317.76;1700545;83;21081;-74
2022/09/28 04:36:16;;;;;;;20.30;16.90;;;;;;;14.12;100.00;98313.45;1719044;83;21096;-75
2022/09/28 04:38:42;;;;;;;21.60;18.23;;;;;;;14.19;100.00;98317.89;1707555;82;21091;-76
2022/09/28 04:41:10;;;;;;;26.02;18.45;;;;;;;14.23;100.00;98323.73;1755736;81;21034;-74
2022/09/28 04:43:37;;;;;;;23.52;18.00;;;;;;;14.25;100.00;98324.20;1767515;80;21062;-73
2022/09/28 04:46:06;;;;;;;19.70;16.27;;;;;;;14.28;100.00;98321.45;1753672;81;21979;-75
2022/09/28 04:48:36;;;;;;;24.45;17.70;;;;;;;14.30;100.00;98318.67;1750269;80;20978;-75
2022/09/28 04:51:13;;;;;;;20.40;16.35;;;;;;;14.39;100.00;98324.17;1723531;82;21058;-74
2022/09/28 04:53:40;;;;;;;22.50;18.05;;;;;;;14.43;100.00;98324.37;1766833;81;21058;-75
2022/09/28 04:56:11;;;;;;;22.62;16.90;;;;;;;14.39;100.00;98319.56;1770546;81;21567;-75
2022/09/28 04:58:38;;;;;;;22.65;17.67;;;;;;;14.39;100.00;98319.56;1763005;80;21236;-74
2022/09/28 05:01:14;;;;;;;21.33;17.55;;;;;;;14.26;100.00;98319.05;1751831;81;20919;-76
2022/09/28 05:04:00;;;;;;;16.62;14.68;;;;;;;14.19;100.00;98317.34;1749461;80;21013;-73
2022/09/28 05:06:29;;;;;;;23.15;16.57;;;;;;;14.21;100.00;98322.42;1728370;81;21042;-74
2022/09/28 05:09:02;;;;;;;24.12;18.30;;;;;;;14.16;100.00;98333.36;1783428;80;21654;-76
2022/09/28 05:11:29;;;;;;;21.30;17.02;;;;;;;14.16;100.00;98334.16;1729557;82;21218;-78
2022/09/28 05:13:56;;;;;;;23.32;18.75;;;;;;;14.28;100.00;98333.08;1779475;80;21097;-76
2022/09/28 05:16:26;;;;;;;23.77;18.57;;;;;;;14.33;100.00;98326.75;1779180;80;20994;-74
2022/09/28 05:19:05;;;;;;;26.30;20.05;;;;;;;14.39;100.00;98324.97;1721594;82;21032;-75
2022/09/28 05:21:32;;;;;;;22.32;18.85;;;;;;;14.46;100.00;98323.75;1748689;80;21514;-77
2022/09/28 05:23:58;;;;;;;22.67;18.73;;;;;;;14.44;100.00;98325.95;1728750;82;21125;-79
2022/09/28 05:26:26;;;;;;;20.95;17.40;;;;;;;14.42;100.00;98318.72;1751374;80;20927;-75
2022/09/28 05:28:52;;;;;;;22.15;19.07;;;;;;;14.42;100.00;98318.72;1728454;82;21543;-72
2022/09/28 05:31:22;;;;;;;20.05;17.65;;;;;;;14.38;100.00;98317.98;1748123;80;21018;-73
2022/09/28 05:33:59;;;;;;;25.00;16.97;;;;;;;14.42;100.00;98317.36;1746585;81;21586;-73
2022/09/28 05:36:26;;;;;;;21.95;17.92;;;;;;;14.38;100.00;98318.54;1747950;82;20975;-73
2022/09/28 05:38:53;;;;;;;23.45;19.40;;;;;;;14.32;100.00;98324.59;1773081;80;20974;-74
2022/09/28 05:41:21;;;;;;;28.87;21.85;;;;;;;14.30;100.00;98315.17;1756596;80;21070;-75
2022/09/28 05:43:50;;;;;;;19.32;16.90;;;;;;;14.29;100.00;98315.72;1769873;80;21021;-74
2022/09/28 05:46:18;;;;;;;22.32;18.32;;;;;;;14.25;100.00;98317.99;1773452;80;21010;-70
2022/09/28 05:48:47;;;;;;;23.52;19.27;;;;;;;14.17;100.00;98323.59;1728791;82;22006;-75
2022/09/28 05:51:13;;;;;;;20.70;18.35;;;;;;;14.07;100.00;98320.33;1779259;80;20978;-78
2022/09/28 05:53:42;;;;;;;24.05;19.40;;;;;;;13.96;100.00;98317.85;1748077;82;21553;-78
2022/09/28 05:56:10;;;;;;;24.20;18.52;;;;;;;13.88;100.00;98315.89;1754187;80;20998;-72
2022/09/28 05:58:39;;;;;;;23.98;18.67;;;;;;;13.88;100.00;98313.18;1760666;80;21050;-73
2022/09/28 06:01:05;;;;;;;23.47;20.48;;;;;;;13.90;100.00;98322.34;1750394;80;21203;-74
2022/09/28 06:03:32;;;;;;;22.42;18.00;;;;;;;13.95;100.00;98322.23;1758350;80;21007;-74
2022/09/28 06:06:01;;;;;;;21.17;18.07;;;;;;;14.01;100.00;98326.39;1776686;80;21033;-73
2022/09/28 06:08:31;;;;;;;23.95;19.20;;;;;;;14.04;100.00;98330.41;1778886;80;20942;-74
2022/09/28 06:11:16;;;;;;;24.25;20.27;;;;;;;14.08;100.00;98328.69;1774421;80;20967;-72
2022/09/28 06:13:44;;;;;;;27.07;21.95;;;;;;;14.13;100.00;98330.73;1747309;82;21868;-72
2022/09/28 06:16:15;;;;;;;27.55;22.48;;;;;;;14.17;100.00;98334.41;1748197;82;21070;-74
2022/09/28 06:18:44;;;;;;;27.85;22.55;;;;;;;14.18;100.00;98341.42;1772417;80;20939;-73
2022/09/28 06:21:14;;;;;;;24.50;20.32;;;;;;;14.17;100.00;98335.77;1771286;80;21116;-73
2022/09/28 06:23:43;;;;;;;27.80;23.05;;;;;;;14.20;100.00;98328.93;1748605;82;21479;-71
2022/09/28 06:26:10;;;;;;;63.23;50.40;;;;;;;14.20;100.00;98332.44;1761160;80;21741;-74
2022/09/28 06:28:38;;;;;;;55.55;47.50;;;;;;;14.22;100.00;98337.55;1767994;80;21349;-71
2022/09/28 06:31:07;;;;;;;38.60;28.15;;;;;;;14.24;100.00;98329.94;1761050;80;21001;-74
2022/09/28 06:33:37;;;;;;;41.90;27.95;;;;;;;14.26;100.00;98327.16;1752760;81;21066;-74
2022/09/28 06:36:04;;;;;;;45.95;25.80;;;;;;;14.26;100.00;98330.41;1748335;82;21093;-71
2022/09/28 06:38:33;;;;;;;51.90;28.85;;;;;;;14.26;100.00;98329.87;1772269;80;21258;-73
2022/09/28 06:41:01;;;;;;;40.65;26.90;;;;;;;14.27;100.00;98325.26;1734158;82;21024;-75
2022/09/28 06:43:28;;;;;;;61.50;32.45;;;;;;;14.33;100.00;98333.51;1748102;82;21023;-71
2022/09/28 06:46:14;;;;;;;47.35;27.37;;;;;;;14.38;100.00;98326.66;1778986;80;21003;-72
2022/09/28 06:48:59;;;;;;;53.40;29.18;;;;;;;14.43;100.00;98328.44;1778338;80;21085;-71
2022/09/28 06:51:45;;;;;;;43.52;28.57;;;;;;;14.43;100.00;98327.08;1778538;80;21231;-72
2022/09/28 06:54:13;;;;;;;42.38;29.10;;;;;;;14.43;100.00;98325.18;1778450;80;20970;-74
2022/09/28 06:56:44;;;;;;;40.40;27.35;;;;;;;14.45;100.00;98318.89;1777740;80;20990;-78
2022/09/28 06:59:15;;;;;;;43.52;27.90;;;;;;;14.48;100.00;98313.44;1728634;82;21057;-74
2022/09/28 07:01:42;;;;;;;40.08;26.52;;;;;;;14.49;100.00;98312.30;1750121;80;21085;-75
2022/09/28 07:04:10;;;;;;;42.08;26.45;;;;;;;14.48;100.00;98310.73;1703032;84;21151;-76
2022/09/28 07:06:57;;;;;;;48.55;28.35;;;;;;;14.53;100.00;98305.97;1705214;82;20939;-74
2022/09/28 07:09:44;;;;;;;38.67;24.92;;;;;;;14.63;100.00;98303.00;1717998;82;21079;-76
2022/09/28 07:12:31;;;;;;;35.92;24.43;;;;;;;14.70;100.00;98300.67;1724072;82;20974;-77
2022/09/28 07:14:59;;;;;;;29.92;22.42;;;;;;;14.75;100.00;98302.44;1733641;82;21078;-74
2022/09/28 07:17:28;;;;;;;30.30;21.73;;;;;;;14.78;100.00;98303.16;1733292;82;21145;-77
2022/09/28 07:19:57;;;;;;;29.72;20.82;;;;;;;14.82;100.00;98306.84;1733445;82;20964;-76
2022/09/28 07:22:24;;;;;;;25.17;20.08;;;;;;;14.86;100.00;98305.12;1733095;82;21567;-78
2022/09/28 07:24:53;;;;;;;25.77;20.48;;;;;;;14.91;100.00;98310.96;1733859;82;21004;-75
2022/09/28 07:27:28;;;;;;;32.00;22.67;;;;;;;14.91;100.00;98302.84;1695099;82;21090;-75
2022/09/28 07:29:57;;;;;;;27.02;20.57;;;;;;;14.91;100.00;98296.88;1730521;82;21130;-74
2022/09/28 07:32:36;;;;;;;37.00;25.82;;;;;;;14.91;99.74;98306.91;1776336;80;21002;-77
2022/09/28 07:35:08;;;;;;;24.47;20.50;;;;;;;14.92;99.84;98302.51;1762706;80;21006;-75
2022/09/28 07:37:48;;;;;;;27.42;22.13;;;;;;;14.91;99.35;98303.64;1752121;81;21515;-75
2022/09/28 07:43:05;;;;;;;25.12;22.07;;;;;;;15.00;99.37;98299.61;1730268;81;41634;-76
2022/09/28 07:45:35;;;;;;;28.70;23.22;;;;;;;15.02;98.93;98294.67;1747945;82;21036;-76
2022/09/28 07:48:02;;;;;;;24.52;20.37;;;;;;;15.05;98.60;98293.51;1760490;80;21135;-75
2022/09/28 07:50:31;;;;;;;21.65;19.07;;;;;;;15.11;98.36;98288.73;1754508;80;21026;-75
2022/09/28 07:52:59;;;;;;;24.23;20.20;;;;;;;15.14;97.67;98286.77;1717676;82;21125;-77
2022/09/28 07:55:31;;;;;;;22.40;19.20;;;;;;;15.13;97.14;98293.28;1747954;81;21578;-74
2022/09/28 07:58:10;;;;;;;22.22;18.98;;;;;;;15.13;97.27;98298.15;1761537;80;21467;-75
2022/09/28 08:00:40;;;;;;;24.30;20.20;;;;;;;15.19;97.52;98298.25;1768096;80;21492;-73
2022/09/28 08:03:06;;;;;;;22.30;18.02;;;;;;;15.23;97.58;98298.42;1750834;82;21595;-74
2022/09/28 08:05:34;;;;;;;22.95;19.87;;;;;;;15.25;97.34;98298.33;1750558;82;22287;-75
2022/09/28 08:08:01;;;;;;;25.82;19.50;;;;;;;15.23;97.11;98293.00;1740179;82;22000;-73
2022/09/28 08:10:30;;;;;;;26.37;19.30;;;;;;;15.25;97.34;98296.20;1734235;82;20928;-76
2022/09/28 08:13:04;;;;;;;18.25;16.17;;;;;;;15.30;97.09;98294.68;1721485;82;21106;-74
2022/09/28 08:15:43;;;;;;;24.20;19.57;;;;;;;15.33;96.40;98291.91;1753937;81;21014;-71
2022/09/28 08:18:12;;;;;;;19.82;17.73;;;;;;;15.36;96.22;98289.92;1733620;81;21027;-74
2022/09/28 08:23:25;;;;;;;23.85;19.00;;;;;;;15.35;94.87;98291.83;1750245;81;21617;-74
2022/09/28 08:25:52;;;;;;;27.67;18.70;;;;;;;15.24;94.15;98295.41;1750689;81;21534;-74
2022/09/28 08:28:21;;;;;;;31.17;19.90;;;;;;;15.17;94.39;98290.19;1737377;82;21130;-79
2022/09/28 08:30:50;;;;;;;22.65;17.87;;;;;;;15.18;94.86;98291.79;1721297;82;21584;-76
2022/09/28 08:33:26;;;;;;;27.17;19.82;;;;;;;15.21;94.59;98290.59;1721012;83;21891;-78
2022/09/28 08:36:11;;;;;;;21.80;18.02;;;;;;;15.22;94.28;98292.75;1742515;82;21575;-79
2022/09/28 08:38:57;;;;;;;21.27;17.12;;;;;;;15.25;94.11;98301.05;1733198;81;21072;-73
2022/09/28 08:41:51;;;;;;;18.90;15.98;;;;;;;15.24;92.29;98297.31;1727433;82;21057;-74
2022/09/28 08:44:25;;;;;;;23.32;18.37;;;;;;;15.24;92.47;98297.31;1702754;83;21574;-72
2022/09/28 08:47:03;;;;;;;23.12;17.90;;;;;;;15.26;92.53;98300.48;1689806;82;21786;-72
2022/09/28 08:49:40;;;;;;;26.70;17.50;;;;;;;15.31;92.05;98301.70;1704169;82;21053;-73
2022/09/28 08:52:23;;;;;;;22.58;18.75;;;;;;;15.39;91.32;98298.23;1717424;82;20939;-72
2022/09/28 08:55:05;;;;;;;21.87;16.67;;;;;;;15.42;90.62;98301.66;1730499;82;21058;-75
2022/09/28 08:57:45;;;;;;;21.60;17.65;;;;;;;15.42;90.21;98294.89;1724239;82;21075;-72
2022/09/28 09:00:38;;;;;;;21.00;16.48;;;;;;;15.49;90.25;98287.66;1675203;83;21613;-74
2022/09/28 09:03:14;;;;;;;20.70;18.10;;;;;;;15.58;90.01;98285.23;1753877;80;20934;-76
2022/09/28 09:06:26;;;;;;;25.50;18.10;;;;;;;15.57;89.06;98278.77;1778190;80;21033;-79
2022/09/28 09:09:35;;;;;;;24.63;18.52;;;;;;;15.59;89.37;98281.39;1759763;80;21099;-73
2022/09/28 09:12:11;;;;;;;21.70;18.62;;;;;;;15.62;89.23;98290.27;1684565;83;21103;-73
2022/09/28 09:15:08;;;;;;;101.47;70.57;;;;;;;15.65;88.71;98289.62;1743552;80;21623;-76
2022/09/28 09:17:54;;;;;;;28.25;22.65;;;;;;;15.64;87.42;98289.38;1773736;80;21043;-74
2022/09/28 09:20:36;;;;;;;27.35;21.68;;;;;;;15.68;87.20;98284.13;1762642;80;21555;-77
2022/09/28 09:23:42;;;;;;;26.12;19.55;;;;;;;15.75;87.13;98290.42;1768046;80;21606;-71
2022/09/28 09:26:19;;;;;;;26.93;19.52;;;;;;;15.83;86.83;98293.13;1773267;80;21072;-76
2022/09/28 09:29:08;;;;;;;22.10;18.73;;;;;;;15.90;87.09;98296.18;1775150;80;20899;-78
2022/09/28 09:32:14;;;;;;;24.52;18.20;;;;;;;16.00;86.59;98295.87;1755571;80;21030;-79
2022/09/28 09:35:14;;;;;;;30.48;19.12;;;;;;;16.12;85.42;98293.85;1778429;80;20876;-75
2022/09/28 09:38:20;;;;;;;25.00;18.02;;;;;;;16.10;83.46;98296.11;1742122;80;21120;-79
2022/09/28 09:41:55;;;;;;;21.40;15.60;;;;;;;16.04;83.07;98298.73;1762610;79;21010;-76
2022/09/28 09:44:58;;;;;;;16.85;12.53;;;;;;;16.05;82.04;98292.20;1773901;80;21259;-75
2022/09/28 09:47:34;;;;;;;18.77;12.58;;;;;;;16.18;81.38;98283.64;1769220;80;20923;-79
2022/09/28 09:50:29;;;;;;;28.30;18.05;;;;;;;16.30;80.84;98286.52;1778538;80;21029;-80
2022/09/28 09:53:25;;;;;;;24.77;16.20;;;;;;;16.38;79.89;98288.41;1773255;80;21380;-75
2022/09/28 09:55:59;;;;;;;28.00;17.07;;;;;;;16.32;78.54;98278.84;1778051;80;21508;-74
2022/09/28 09:58:37;;;;;;;24.35;15.68;;;;;;;16.27;78.75;98273.58;1778159;80;21747;-79
2022/09/28 10:01:13;;;;;;;21.90;16.85;;;;;;;16.33;79.14;98279.08;1770978;80;21066;-78
2022/09/28 10:03:58;;;;;;;23.92;16.05;;;;;;;16.42;79.28;98275.23;1764493;80;21101;-73
2022/09/28 10:06:29;;;;;;;23.57;15.53;;;;;;;16.55;79.55;98276.95;1748000;82;21026;-77
2022/09/28 10:09:25;;;;;;;29.48;19.30;;;;;;;16.66;79.15;98280.71;1748289;82;21078;-78
2022/09/28 10:11:54;;;;;;;23.60;17.85;;;;;;;16.69;78.67;98290.36;1759889;80;21218;-75
2022/09/28 10:14:23;;;;;;;25.43;17.17;;;;;;;16.70;78.33;98296.03;1740755;81;21685;-72
2022/09/28 10:16:53;;;;;;;24.02;18.12;;;;;;;16.76;78.52;98297.45;1768460;80;21550;-73
2022/09/28 10:19:33;;;;;;;20.52;16.40;;;;;;;16.84;77.40;98307.48;1749933;80;21099;-73
2022/09/28 10:22:23;;;;;;;23.05;16.77;;;;;;;16.80;76.78;98298.40;1762607;80;21083;-71
2022/09/28 10:24:57;;;;;;;22.58;17.52;;;;;;;16.73;77.10;98302.74;1774423;80;21047;-69
2022/09/28 10:27:30;;;;;;;21.48;15.40;;;;;;;16.69;77.14;98301.80;1765242;80;20946;-68
2022/09/28 10:30:14;;;;;;;24.23;15.88;;;;;;;16.65;77.31;98312.48;1774033;80;21101;-70
2022/09/28 10:32:46;;;;;;;20.97;16.77;;;;;;;16.61;77.36;98307.47;1750646;80;21491;-70
2022/09/28 10:35:26;;;;;;;30.37;18.02;;;;;;;16.60;77.61;98299.64;1754007;80;20974;-68
2022/09/28 10:38:06;;;;;;;23.77;17.60;;;;;;;16.56;77.78;98296.20;1721465;82;21144;-74
2022/09/28 10:40:49;;;;;;;27.37;17.48;;;;;;;16.54;78.40;98300.37;1733949;80;20954;-69
2022/09/28 10:43:38;;;;;;;28.62;17.98;;;;;;;16.55;78.69;98307.37;1775482;80;21050;-73
2022/09/28 10:46:12;;;;;;;20.55;15.68;;;;;;;16.59;78.76;98304.86;1777981;80;20995;-76
2022/09/28 10:49:03;;;;;;;22.10;15.70;;;;;;;16.62;78.75;98307.72;1750040;82;21662;-72
2022/09/28 10:51:43;;;;;;;26.55;18.10;;;;;;;16.66;78.93;98305.14;1778805;80;21038;-72
2022/09/28 10:54:18;;;;;;;26.75;18.90;;;;;;;16.70;78.98;98306.09;1768750;80;21025;-69
2022/09/28 10:56:48;;;;;;;29.02;20.12;;;;;;;16.73;79.11;98307.62;1770531;80;20982;-69
2022/09/28 10:59:34;;;;;;;23.38;17.32;;;;;;;16.74;79.10;98306.47;1771323;80;21015;-73
2022/09/28 11:02:16;;;;;;;30.20;21.17;;;;;;;16.79;79.07;98302.78;1748626;80;21057;-69
2022/09/28 11:04:49;;;;;;;34.75;24.98;;;;;;;16.79;78.63;98300.07;1778169;80;21246;-72
2022/09/28 11:07:23;;;;;;;36.15;24.20;;;;;;;16.78;78.76;98294.42;1777745;80;21587;-72
2022/09/28 11:09:50;;;;;;;35.63;25.17;;;;;;;16.82;79.10;98296.17;1778407;80;21054;-72
2022/09/28 11:12:22;;;;;;;37.95;23.62;;;;;;;16.83;79.08;98299.69;1737527;82;21045;-73
2022/09/28 11:14:58;;;;;;;42.90;26.17;;;;;;;16.80;79.22;98298.95;1749025;80;21120;-79
2022/09/28 11:17:29;;;;;;;45.10;28.32;;;;;;;16.79;79.67;98301.43;1745936;80;21057;-71
2022/09/28 11:20:05;;;;;;;32.67;24.07;;;;;;;16.83;80.13;98301.84;1766122;80;21554;-79
2022/09/28 11:22:40;;;;;;;38.53;26.17;;;;;;;16.88;80.40;98308.42;1754837;80;21542;-77
2022/09/28 11:25:22;;;;;;;38.20;25.15;;;;;;;16.95;80.29;98299.79;1748377;82;21421;-75
2022/09/28 11:27:55;;;;;;;37.45;26.75;;;;;;;16.98;80.18;98298.56;1746576;80;20966;-80
2022/09/28 11:30:40;;;;;;;32.13;25.05;;;;;;;16.97;80.17;98294.84;1761020;80;21020;-74
2022/09/28 11:33:19;;;;;;;33.28;24.18;;;;;;;16.98;80.29;98289.62;1769685;80;21418;-76
2022/09/28 11:36:31;;;;;;;31.80;24.35;;;;;;;17.00;80.11;98282.75;1755482;80;20933;-73
2022/09/28 11:39:22;;;;;;;34.58;25.65;;;;;;;16.96;79.44;98285.09;1737575;81;20983;-72
2022/09/28 11:42:15;;;;;;;38.63;25.92;;;;;;;16.91;79.73;98292.86;1764199;80;21090;-74
2022/09/28 11:44:45;;;;;;;46.92;25.72;;;;;;;16.99;79.91;98289.86;1753979;80;21105;-74
2022/09/28 11:47:41;;;;;;;38.55;25.12;;;;;;;17.08;79.55;98289.27;1769161;80;21050;-70
2022/09/28 11:50:41;;;;;;;33.78;23.95;;;;;;;17.12;79.35;98283.99;1774401;80;21070;-77
2022/09/28 11:53:29;;;;;;;30.32;19.87;;;;;;;17.15;79.26;98288.20;1750941;80;21021;-69
2022/09/28 11:56:15;;;;;;;36.73;23.38;;;;;;;17.20;78.65;98286.66;1775576;80;21027;-71
2022/09/28 11:58:52;;;;;;;41.53;25.80;;;;;;;17.28;78.40;98288.53;1768835;80;21525;-70